Time;durP1;ratioP1;P1;durP2;ratioP2;P2;SDS_P1;SDS_P2;PMS_P1;PMS_P2;Temp;Humidity;BMP_temperature;BMP_pressure;BME280_temperature;BME280_humidity;BME280_pressure;Samples;Min_cycle;Max_cycle;Signal;HPM_P1;HPM_P2
2022/06/08 00:00:58;;;;;;;2.08;1.50;;;;;;;17.30;71.24;100109.50;4994040;28;20441;-73
2022/06/08 00:03:28;;;;;;;1.92;1.30;;;;;;;17.35;71.20;100105.88;4993865;28;20837;-73
2022/06/08 00:05:53;;;;;;;1.58;1.00;;;;;;;17.48;70.81;100105.13;5023021;28;20415;-73
2022/06/08 00:08:19;;;;;;;1.20;1.10;;;;;;;17.57;70.46;100106.91;5033098;28;20438;-73
2022/06/08 00:10:44;;;;;;;3.13;1.30;;;;;;;17.59;70.34;100101.13;5032991;28;20392;-73
2022/06/08 00:13:09;;;;;;;2.30;1.47;;;;;;;17.56;70.45;100102.53;5032787;28;20421;-73
2022/06/08 00:15:35;;;;;;;4.50;1.40;;;;;;;17.53;70.26;100100.38;5033159;28;20423;-73
2022/06/08 00:18:01;;;;;;;1.40;1.13;;;;;;;17.49;70.30;100093.84;5033003;28;20391;-73
2022/06/08 00:20:27;;;;;;;1.27;1.05;;;;;;;17.48;70.25;100089.50;5015053;28;20399;-73
2022/06/08 00:22:53;;;;;;;3.63;1.43;;;;;;;17.50;70.08;100090.00;5032692;28;20391;-73
2022/06/08 00:25:20;;;;;;;1.90;1.40;;;;;;;17.54;69.94;100087.50;5032683;28;20398;-73
2022/06/08 00:27:45;;;;;;;2.72;1.35;;;;;;;17.48;70.43;100084.03;5032604;28;20406;-73
2022/06/08 00:30:11;;;;;;;2.23;1.43;;;;;;;17.44;70.73;100087.66;5014897;28;20395;-73
2022/06/08 00:32:36;;;;;;;1.87;1.50;;;;;;;17.35;71.44;100082.06;5032530;28;20774;-73
2022/06/08 00:35:03;;;;;;;4.28;1.50;;;;;;;17.45;71.19;100078.34;5031301;28;20542;-73
2022/06/08 00:37:29;;;;;;;2.65;1.60;;;;;;;17.51;70.73;100075.22;5032389;28;20870;-73
2022/06/08 00:39:54;;;;;;;2.50;1.75;;;;;;;17.54;70.84;100073.78;5032468;28;20403;-73
2022/06/08 00:42:20;;;;;;;2.60;1.83;;;;;;;17.55;70.89;100067.22;5032394;28;20391;-73
2022/06/08 00:44:49;;;;;;;2.63;1.65;;;;;;;17.56;70.56;100061.44;5032353;28;20533;-73
2022/06/08 00:47:22;;;;;;;2.83;1.92;;;;;;;17.57;70.67;100068.56;5032450;28;20387;-73
2022/06/08 00:49:52;;;;;;;8.45;2.00;;;;;;;17.47;71.31;100059.66;5032285;28;20399;-73
2022/06/08 00:52:18;;;;;;;2.60;1.50;;;;;;;17.41;71.39;100067.16;5032182;28;20407;-73
2022/06/08 00:54:47;;;;;;;1.40;1.30;;;;;;;17.43;71.34;100059.44;5032216;28;20399;-73
2022/06/08 00:57:16;;;;;;;1.60;1.50;;;;;;;17.40;71.48;100061.97;5032155;28;20871;-72
2022/06/08 00:59:48;;;;;;;2.72;1.40;;;;;;;17.35;71.65;100060.16;5032301;28;20418;-73
2022/06/08 01:02:14;;;;;;;2.25;1.15;;;;;;;17.29;71.85;100053.09;5014356;28;20469;-73
2022/06/08 01:04:39;;;;;;;1.00;1.00;;;;;;;17.19;72.15;100047.00;5031609;28;20878;-73
2022/06/08 01:07:05;;;;;;;2.23;1.40;;;;;;;17.15;72.17;100045.97;5032164;28;20440;-73
2022/06/08 01:09:35;;;;;;;1.40;1.30;;;;;;;17.10;72.35;100047.66;5032169;28;20405;-73
2022/06/08 01:12:07;;;;;;;1.58;1.20;;;;;;;17.04;72.54;100039.81;5031895;28;20422;-73
2022/06/08 01:14:34;;;;;;;1.98;1.27;;;;;;;16.97;72.81;100042.13;5031924;28;20403;-73
2022/06/08 01:17:09;;;;;;;3.63;1.10;;;;;;;16.95;72.73;100053.38;5031916;28;20478;-73
2022/06/08 01:19:37;;;;;;;2.83;1.10;;;;;;;16.91;72.70;100059.72;5031804;28;20410;-73
2022/06/08 01:22:04;;;;;;;3.13;2.03;;;;;;;16.89;72.84;100056.50;5016000;28;20402;-73
2022/06/08 01:24:31;;;;;;;1.35;1.25;;;;;;;16.89;72.58;100056.50;5031827;28;20732;-73
2022/06/08 01:27:03;;;;;;;3.72;1.77;;;;;;;16.81;72.78;100054.41;5031717;28;20387;-73
2022/06/08 01:29:41;;;;;;;3.30;1.58;;;;;;;16.72;72.99;100050.72;5031658;28;20395;-73
2022/06/08 01:32:33;;;;;;;3.90;1.42;;;;;;;16.63;73.17;100055.22;5013836;28;20421;-73
2022/06/08 01:35:28;;;;;;;3.00;1.70;;;;;;;16.59;73.61;100053.06;5031306;28;20498;-73
2022/06/08 01:37:54;;;;;;;3.33;1.42;;;;;;;16.60;73.34;100053.84;5016724;28;20457;-73
2022/06/08 01:40:56;;;;;;;1.50;1.40;;;;;;;16.59;73.42;100050.34;5031468;28;20867;-73
2022/06/08 01:43:47;;;;;;;4.75;1.50;;;;;;;16.62;73.51;100045.38;5031492;28;20448;-73
2022/06/08 01:46:28;;;;;;;2.33;1.20;;;;;;;16.68;73.27;100044.19;5035129;28;20409;-73
2022/06/08 01:49:14;;;;;;;2.80;1.30;;;;;;;16.68;73.19;100039.53;5020295;28;20398;-73
2022/06/08 01:52:06;;;;;;;3.20;1.30;;;;;;;16.72;73.25;100046.06;5028839;28;20917;-73
2022/06/08 01:54:50;;;;;;;2.17;1.40;;;;;;;16.78;72.91;100042.13;5020288;28;20418;-73
2022/06/08 01:57:44;;;;;;;4.07;2.00;;;;;;;16.83;72.66;100033.00;5037872;28;20390;-73
2022/06/08 02:00:14;;;;;;;2.70;1.20;;;;;;;16.65;73.11;100039.31;5038118;28;20942;-73
2022/06/08 02:03:07;;;;;;;3.80;1.77;;;;;;;16.73;72.73;100030.44;5020076;28;20403;-73
2022/06/08 02:05:42;;;;;;;1.77;1.67;;;;;;;16.84;72.42;100024.53;5019927;28;20483;-73
2022/06/08 02:08:18;;;;;;;1.53;1.20;;;;;;;16.86;72.36;100022.28;5037949;28;20476;-73
2022/06/08 02:11:00;;;;;;;1.37;1.27;;;;;;;16.88;72.33;100022.00;5020294;28;20402;-73
2022/06/08 02:13:38;;;;;;;3.55;2.00;;;;;;;16.89;72.66;100013.47;5023954;28;20476;-73
2022/06/08 02:16:08;;;;;;;4.95;1.85;;;;;;;16.88;72.51;100011.88;5020125;28;20425;-73
2022/06/08 02:18:43;;;;;;;3.13;1.50;;;;;;;16.86;72.41;100008.59;5037969;28;20493;-73
2022/06/08 02:21:16;;;;;;;6.53;1.95;;;;;;;16.82;72.55;100015.81;5022897;28;20387;-73
2022/06/08 02:23:48;;;;;;;3.15;1.90;;;;;;;16.67;72.84;100018.75;5037782;28;20391;-73
2022/06/08 02:26:26;;;;;;;3.90;2.20;;;;;;;16.70;72.95;100012.69;5037761;28;20465;-73
2022/06/08 02:29:01;;;;;;;1.90;1.80;;;;;;;16.81;72.54;100010.63;5037635;28;20742;-73
2022/06/08 02:31:33;;;;;;;2.70;1.95;;;;;;;16.88;72.07;100013.78;5037647;28;20399;-73
2022/06/08 02:36:55;;;;;;;3.35;1.80;;;;;;;16.90;71.75;99997.88;5022046;28;20375;-73
2022/06/08 02:39:32;;;;;;;2.13;1.88;;;;;;;16.90;71.81;99995.97;5037573;28;20398;-72
2022/06/08 02:42:30;;;;;;;5.03;2.17;;;;;;;16.92;71.35;99982.00;5037662;28;20422;-72
2022/06/08 02:45:02;;;;;;;6.60;1.73;;;;;;;16.88;71.56;99992.72;5023816;28;20465;-73
2022/06/08 02:47:31;;;;;;;3.63;1.80;;;;;;;16.85;71.39;99982.38;5037814;28;20762;-72
2022/06/08 02:50:00;;;;;;;4.43;1.98;;;;;;;16.83;71.48;99986.50;5037455;28;20395;-73
2022/06/08 02:52:27;;;;;;;4.45;1.98;;;;;;;16.78;71.51;99986.59;5037511;28;20477;-72
2022/06/08 02:54:53;;;;;;;4.43;1.60;;;;;;;16.75;71.46;99985.25;5037903;28;20387;-72
2022/06/08 02:57:41;;;;;;;3.23;1.40;;;;;;;16.73;71.41;99978.47;5035259;28;20714;-73
2022/06/08 03:00:13;;;;;;;2.75;1.60;;;;;;;16.72;71.34;99976.84;5034503;28;20391;-73
2022/06/08 03:02:46;;;;;;;2.40;1.98;;;;;;;16.71;71.34;99978.75;5034075;28;20396;-73
2022/06/08 03:05:19;;;;;;;6.93;1.48;;;;;;;16.69;71.47;99977.44;5034073;28;20422;-73
2022/06/08 03:07:56;;;;;;;5.70;1.30;;;;;;;16.66;71.45;99970.63;5034194;28;20403;-73
2022/06/08 03:10:24;;;;;;;3.42;1.42;;;;;;;16.63;71.81;99973.94;5019526;28;20383;-73
2022/06/08 03:13:14;;;;;;;3.28;1.67;;;;;;;16.59;71.89;99967.44;5034094;28;20429;-73
2022/06/08 03:15:41;;;;;;;1.80;1.45;;;;;;;16.53;71.75;99963.94;5014254;28;20395;-73
2022/06/08 03:18:07;;;;;;;9.32;1.88;;;;;;;16.52;71.97;99964.22;5034044;28;20728;-73
2022/06/08 03:20:32;;;;;;;3.50;1.60;;;;;;;16.46;71.83;99963.50;5016171;28;20417;-73
2022/06/08 03:22:58;;;;;;;2.30;1.70;;;;;;;16.44;71.93;99962.16;5033969;28;20513;-73
2022/06/08 03:25:24;;;;;;;2.23;1.80;;;;;;;16.43;72.10;99958.59;5033879;28;20859;-73
2022/06/08 03:27:50;;;;;;;3.60;1.50;;;;;;;16.42;71.89;99972.59;5033806;28;20480;-73
2022/06/08 03:30:17;;;;;;;1.90;0.93;;;;;;;16.44;71.70;99970.34;5033912;28;20415;-73
2022/06/08 03:32:43;;;;;;;4.15;1.80;;;;;;;16.38;71.53;99966.88;5033345;28;20437;-73
2022/06/08 03:35:09;;;;;;;3.35;1.35;;;;;;;16.32;71.59;99965.34;5033632;28;20383;-73
2022/06/08 03:37:35;;;;;;;2.65;1.40;;;;;;;16.34;71.40;99968.56;5033574;28;20475;-73
2022/06/08 03:40:01;;;;;;;2.95;1.20;;;;;;;16.40;71.24;99966.59;5033635;28;20391;-73
2022/06/08 03:42:26;;;;;;;4.20;1.50;;;;;;;16.39;71.23;99970.44;5033330;28;20478;-73
2022/06/08 03:44:51;;;;;;;1.97;1.20;;;;;;;16.39;71.16;99965.78;5033469;28;20481;-73
2022/06/08 03:47:21;;;;;;;1.20;1.10;;;;;;;16.42;71.04;99964.38;5033545;28;20395;-73
2022/06/08 03:49:48;;;;;;;1.08;1.00;;;;;;;16.49;71.02;99976.59;5015646;28;20434;-73
2022/06/08 03:52:26;;;;;;;1.98;1.10;;;;;;;16.55;70.93;99960.94;5033273;28;20418;-74
2022/06/08 03:54:54;;;;;;;3.85;1.27;;;;;;;16.46;71.35;99965.44;5033430;28;20390;-73
2022/06/08 03:57:21;;;;;;;2.47;1.60;;;;;;;16.34;71.40;99965.84;5033336;28;20402;-73
2022/06/08 03:59:48;;;;;;;2.70;1.35;;;;;;;16.23;71.73;99966.28;5033259;28;20445;-73
2022/06/08 04:02:13;;;;;;;3.83;2.30;;;;;;;16.18;71.85;99958.97;5032885;28;20446;-73
2022/06/08 04:04:39;;;;;;;2.83;1.80;;;;;;;16.15;71.92;99961.47;5033199;28;20509;-73
2022/06/08 04:07:06;;;;;;;4.13;2.33;;;;;;;16.24;71.62;99957.78;5033167;28;20392;-73
2022/06/08 04:09:31;;;;;;;5.32;2.30;;;;;;;16.24;71.67;99955.03;5032977;28;20387;-73
2022/06/08 04:11:57;;;;;;;4.03;2.03;;;;;;;16.22;71.96;99957.28;5032902;28;20472;-73
2022/06/08 04:14:22;;;;;;;2.22;1.50;;;;;;;16.21;71.57;99950.16;5032894;28;20744;-73
2022/06/08 04:16:48;;;;;;;3.13;1.67;;;;;;;16.22;71.35;99956.44;5032871;28;20395;-73
2022/06/08 04:19:14;;;;;;;3.00;1.40;;;;;;;16.20;71.40;99955.94;5032822;28;20387;-73
2022/06/08 04:21:40;;;;;;;4.50;2.13;;;;;;;16.24;70.73;99949.56;5032701;28;20761;-73
2022/06/08 04:24:07;;;;;;;3.03;1.40;;;;;;;16.32;70.35;99943.47;5032808;28;20394;-73
2022/06/08 04:26:33;;;;;;;3.10;1.30;;;;;;;16.39;70.27;99943.09;5032515;28;20403;-73
2022/06/08 04:28:59;;;;;;;2.58;1.50;;;;;;;16.48;70.19;99938.56;5032885;28;20720;-73
2022/06/08 04:31:24;;;;;;;1.10;1.00;;;;;;;16.51;70.02;99951.66;5031938;28;20396;-73
2022/06/08 04:33:51;;;;;;;4.47;1.85;;;;;;;16.46;70.46;99952.56;5014788;28;20778;-73
2022/06/08 04:36:16;;;;;;;2.40;1.10;;;;;;;16.39;70.41;99963.06;5032625;28;20388;-73
2022/06/08 04:38:42;;;;;;;2.20;1.55;;;;;;;16.27;70.67;99956.41;5032728;28;20396;-73
2022/06/08 04:41:07;;;;;;;1.60;1.20;;;;;;;16.18;71.01;99964.44;5032504;28;20763;-73
2022/06/08 04:43:33;;;;;;;6.00;1.50;;;;;;;16.15;71.14;99956.00;5032393;28;20402;-73
2022/06/08 04:45:58;;;;;;;2.67;1.07;;;;;;;16.13;71.33;99950.03;5032346;28;20525;-73
2022/06/08 04:48:23;;;;;;;1.65;1.40;;;;;;;16.13;71.33;99955.50;5032352;28;20430;-73
2022/06/08 04:50:49;;;;;;;2.63;1.47;;;;;;;16.14;71.12;99957.09;5032367;28;20407;-73
2022/06/08 04:53:15;;;;;;;2.93;1.20;;;;;;;16.15;70.89;99953.25;5032434;28;20430;-73
2022/06/08 04:55:41;;;;;;;2.97;1.50;;;;;;;16.17;70.69;99953.81;5032267;28;20406;-73
2022/06/08 04:58:06;;;;;;;5.17;1.13;;;;;;;16.18;70.84;99958.13;5032013;28;20754;-73
2022/06/08 05:00:32;;;;;;;2.05;1.40;;;;;;;16.29;70.65;99955.00;5032122;28;20418;-73
2022/06/08 05:02:58;;;;;;;3.33;1.23;;;;;;;16.25;70.84;99953.94;5031777;28;20402;-73
2022/06/08 05:05:28;;;;;;;3.00;1.30;;;;;;;16.25;71.15;99947.66;5031814;28;20403;-73
2022/06/08 05:07:54;;;;;;;3.67;1.20;;;;;;;16.23;71.16;99939.78;5031959;28;20419;-73
2022/06/08 05:10:22;;;;;;;5.27;1.10;;;;;;;16.33;71.04;99952.47;5031928;28;20529;-73
2022/06/08 05:12:48;;;;;;;2.88;1.45;;;;;;;16.43;70.87;99944.13;5031868;28;20766;-73
2022/06/08 05:15:18;;;;;;;2.78;1.55;;;;;;;16.41;70.97;99946.34;5014115;28;20391;-73
2022/06/08 05:17:43;;;;;;;4.20;1.30;;;;;;;16.31;71.45;99957.41;5031446;28;20786;-73
2022/06/08 05:20:11;;;;;;;2.10;0.98;;;;;;;16.33;71.52;99955.22;5013611;28;20482;-73
2022/06/08 05:22:37;;;;;;;4.68;2.45;;;;;;;16.36;71.34;99947.25;5031896;28;20390;-73
2022/06/08 05:25:05;;;;;;;3.40;1.27;;;;;;;16.40;71.34;99945.50;5031825;28;20391;-73
2022/06/08 05:27:30;;;;;;;1.85;1.58;;;;;;;16.34;71.82;99938.50;5031677;28;20562;-73
2022/06/08 05:29:56;;;;;;;1.85;1.40;;;;;;;16.39;71.92;99937.63;5031734;28;20887;-73
2022/06/08 05:32:22;;;;;;;2.10;1.20;;;;;;;16.45;71.77;99936.44;5031643;28;20413;-73
2022/06/08 05:34:47;;;;;;;1.63;1.13;;;;;;;16.55;71.57;99941.78;5031861;28;20387;-73
2022/06/08 05:37:12;;;;;;;2.80;1.40;;;;;;;16.65;71.04;99936.16;5031640;28;20920;-73
2022/06/08 05:39:38;;;;;;;2.03;1.50;;;;;;;16.72;70.99;99933.88;5031601;28;20471;-73
2022/06/08 05:42:04;;;;;;;2.03;1.83;;;;;;;16.77;70.87;99938.44;5031492;28;20401;-73
2022/06/08 05:44:29;;;;;;;1.77;1.42;;;;;;;16.86;70.49;99928.44;5031536;28;20843;-73
2022/06/08 05:46:55;;;;;;;7.70;3.40;;;;;;;16.94;69.99;99927.75;5031272;28;20404;-73
2022/06/08 05:49:20;;;;;;;3.97;1.53;;;;;;;17.00;70.02;99924.63;5031440;28;20386;-73
2022/06/08 05:51:46;;;;;;;2.40;1.60;;;;;;;16.94;70.75;99920.34;5031376;28;20442;-73
2022/06/08 05:54:12;;;;;;;5.18;2.67;;;;;;;16.96;70.53;99920.03;5031437;28;20391;-73
2022/06/08 05:56:39;;;;;;;4.72;1.52;;;;;;;17.02;70.22;99922.44;5031313;28;20399;-73
2022/06/08 05:59:04;;;;;;;2.13;1.10;;;;;;;17.07;70.00;99919.59;5013587;28;20430;-73
2022/06/08 06:01:31;;;;;;;2.67;1.30;;;;;;;17.12;70.07;99924.16;5031447;28;20437;-73
2022/06/08 06:03:59;;;;;;;6.47;1.20;;;;;;;17.15;70.25;99920.00;5013679;28;20387;-73
2022/06/08 06:06:24;;;;;;;2.58;1.38;;;;;;;17.13;70.38;99917.56;5030848;28;20449;-73
2022/06/08 06:08:50;;;;;;;2.90;1.23;;;;;;;17.20;69.84;99923.47;5031193;28;20706;-73
2022/06/08 06:11:15;;;;;;;5.10;1.40;;;;;;;17.22;69.69;99920.44;5031259;28;20441;-73
2022/06/08 06:13:41;;;;;;;1.50;1.20;;;;;;;17.22;69.99;99915.78;5031367;28;20406;-73
2022/06/08 06:16:07;;;;;;;4.50;1.90;;;;;;;17.26;70.00;99910.47;5013490;28;20489;-73
2022/06/08 06:18:32;;;;;;;2.30;1.20;;;;;;;17.23;70.07;99913.81;5009942;28;20488;-73
2022/06/08 06:20:58;;;;;;;3.10;1.30;;;;;;;17.26;70.21;99908.56;5030898;28;20525;-73
2022/06/08 06:23:25;;;;;;;4.20;1.50;;;;;;;17.28;70.39;99909.09;5030932;28;20446;-73
2022/06/08 06:25:51;;;;;;;2.90;1.43;;;;;;;17.33;70.25;99902.69;5031134;28;20897;-73
2022/06/08 06:28:16;;;;;;;1.88;1.30;;;;;;;17.39;70.17;99907.75;5013421;28;20528;-73
2022/06/08 06:30:41;;;;;;;3.63;1.50;;;;;;;17.45;70.02;99897.53;5031101;28;20387;-73
2022/06/08 06:33:10;;;;;;;2.00;1.23;;;;;;;17.48;69.87;99892.25;5032779;28;20785;-73
2022/06/08 06:35:35;;;;;;;3.85;0.95;;;;;;;17.47;69.55;99890.63;5034884;28;20399;-73
2022/06/08 06:38:00;;;;;;;4.13;1.47;;;;;;;17.52;69.56;99886.97;5034881;28;20474;-73
2022/06/08 06:40:26;;;;;;;4.27;1.20;;;;;;;17.60;69.21;99883.56;5034668;28;20445;-73
2022/06/08 06:42:51;;;;;;;4.00;1.20;;;;;;;17.64;68.88;99881.84;5034774;28;20453;-73
2022/06/08 06:45:16;;;;;;;2.58;0.98;;;;;;;17.68;68.56;99882.03;5034559;28;20415;-73
2022/06/08 06:47:42;;;;;;;3.63;1.10;;;;;;;17.73;68.62;99879.19;5017009;28;20400;-73
2022/06/08 06:50:10;;;;;;;6.63;1.50;;;;;;;17.79;68.24;99872.47;5034361;28;20881;-73
2022/06/08 06:52:35;;;;;;;2.22;1.40;;;;;;;17.83;67.34;99873.47;5034361;28;20410;-73
2022/06/08 06:55:01;;;;;;;1.90;1.00;;;;;;;17.89;65.72;99864.03;5034575;28;20461;-73
2022/06/08 06:57:26;;;;;;;2.83;0.90;;;;;;;17.96;64.86;99864.44;5016795;28;20716;-73
2022/06/08 06:59:51;;;;;;;2.20;1.10;;;;;;;18.03;64.77;99859.34;5034864;28;20387;-73
2022/06/08 07:02:21;;;;;;;3.38;1.05;;;;;;;18.10;64.41;99857.81;5034458;28;20485;-73
2022/06/08 07:04:47;;;;;;;3.08;1.30;;;;;;;18.15;64.53;99848.63;5034180;28;20781;-73
2022/06/08 07:07:13;;;;;;;3.72;1.02;;;;;;;18.21;64.37;99852.88;5034090;28;20387;-73
2022/06/08 07:09:40;;;;;;;3.80;1.13;;;;;;;18.28;64.31;99844.22;5033309;28;21486;-73
2022/06/08 07:12:07;;;;;;;1.63;0.70;;;;;;;18.33;64.23;99844.94;5034140;28;20506;-73
2022/06/08 07:14:33;;;;;;;2.42;1.20;;;;;;;18.35;63.94;99847.34;5034140;28;20482;-73
2022/06/08 07:16:58;;;;;;;2.65;0.85;;;;;;;18.41;63.94;99843.34;5016343;28;20962;-73
2022/06/08 07:19:23;;;;;;;3.93;0.97;;;;;;;18.49;62.82;99850.84;5034045;28;20422;-73
2022/06/08 07:21:49;;;;;;;2.20;0.90;;;;;;;18.54;63.14;99843.31;5033748;28;20494;-73
2022/06/08 07:24:20;;;;;;;4.40;1.40;;;;;;;18.64;62.74;99836.78;5033892;28;20747;-73
2022/06/08 07:26:49;;;;;;;3.20;0.85;;;;;;;18.71;62.23;99834.41;5032591;28;20376;-73
2022/06/08 07:29:15;;;;;;;4.50;1.40;;;;;;;18.88;62.65;99840.00;5033989;28;20477;-74
2022/06/08 07:31:41;;;;;;;5.22;1.10;;;;;;;19.06;62.45;99840.91;5033737;28;20395;-73
2022/06/08 07:34:07;;;;;;;2.58;0.85;;;;;;;19.29;61.89;99842.47;5033727;28;20746;-73
2022/06/08 07:36:32;;;;;;;2.65;0.80;;;;;;;19.51;61.11;99841.59;5033757;28;20407;-73
2022/06/08 07:38:58;;;;;;;3.07;0.97;;;;;;;19.68;60.32;99841.66;5033646;28;20391;-73
2022/06/08 07:41:24;;;;;;;4.30;1.07;;;;;;;19.80;59.78;99843.75;5015438;28;20411;-73
2022/06/08 07:43:49;;;;;;;2.65;1.25;;;;;;;19.86;59.30;99837.78;5033074;28;20497;-73
2022/06/08 07:46:14;;;;;;;3.20;1.17;;;;;;;19.85;58.92;99835.38;5033519;28;20929;-73
2022/06/08 07:51:24;;;;;;;2.10;1.13;;;;;;;19.90;59.48;99825.03;5033696;28;20386;-73
2022/06/08 07:53:49;;;;;;;3.90;1.35;;;;;;;19.92;59.23;99816.47;5033281;28;20814;-73
2022/06/08 07:56:14;;;;;;;3.83;1.10;;;;;;;19.88;59.14;99821.78;5033266;28;20789;-73
2022/06/08 07:58:40;;;;;;;2.73;1.10;;;;;;;19.89;58.93;99819.88;5033247;28;20474;-73
2022/06/08 08:01:06;;;;;;;2.55;1.27;;;;;;;19.81;60.05;99821.47;5033090;28;20413;-73
2022/06/08 08:03:31;;;;;;;3.10;1.03;;;;;;;19.78;60.03;99816.59;5033210;28;20908;-73
2022/06/08 08:05:57;;;;;;;3.17;1.10;;;;;;;19.80;59.63;99810.78;5018066;28;20404;-73
2022/06/08 08:08:22;;;;;;;3.37;1.20;;;;;;;19.83;59.13;99810.13;5033410;28;20403;-73
2022/06/08 08:10:49;;;;;;;6.18;1.25;;;;;;;19.85;59.17;99803.19;5032905;28;20457;-73
2022/06/08 08:13:14;;;;;;;5.80;1.20;;;;;;;19.94;59.15;99797.69;5032790;28;20971;-73
2022/06/08 08:15:42;;;;;;;2.55;1.08;;;;;;;20.04;57.96;99805.63;5032861;28;20400;-73
2022/06/08 08:18:07;;;;;;;3.58;1.08;;;;;;;20.14;57.93;99797.88;5033015;28;20486;-73
2022/06/08 08:20:34;;;;;;;3.97;1.30;;;;;;;20.33;57.50;99796.75;5032835;28;20499;-73
2022/06/08 08:22:59;;;;;;;5.25;1.20;;;;;;;20.47;56.62;99791.88;5015361;28;20426;-73
2022/06/08 08:25:26;;;;;;;3.90;0.90;;;;;;;20.50;55.99;99783.78;5032984;28;20387;-73
2022/06/08 08:27:53;;;;;;;3.97;1.08;;;;;;;20.59;56.14;99790.06;5032856;28;20391;-73
2022/06/08 08:30:22;;;;;;;5.05;1.10;;;;;;;20.75;55.52;99784.06;5032681;28;20391;-73
2022/06/08 08:32:48;;;;;;;5.20;1.40;;;;;;;20.94;55.18;99779.78;5032469;28;20762;-73
2022/06/08 08:35:16;;;;;;;4.80;1.13;;;;;;;21.12;54.26;99780.53;5014810;28;20387;-73
2022/06/08 08:37:42;;;;;;;2.28;0.90;;;;;;;21.31;53.46;99778.16;5032651;28;20893;-73
2022/06/08 08:40:18;;;;;;;1.92;0.77;;;;;;;21.37;52.82;99770.53;5011479;28;20393;-73
2022/06/08 08:42:43;;;;;;;5.25;1.35;;;;;;;21.41;53.14;99771.44;5032373;28;20872;-73
2022/06/08 08:45:14;;;;;;;3.20;1.03;;;;;;;21.45;52.53;99764.13;5031265;28;20439;-73
2022/06/08 08:48:04;;;;;;;1.80;0.85;;;;;;;21.48;52.50;99752.44;5032373;28;20489;-73
2022/06/08 08:50:35;;;;;;;10.73;2.42;;;;;;;21.47;52.93;99746.13;5032445;28;20739;-73
2022/06/08 08:53:13;;;;;;;5.68;1.20;;;;;;;21.59;53.06;99745.41;5032386;28;20422;-73
2022/06/08 08:56:03;;;;;;;39.55;4.43;;;;;;;21.82;51.22;99738.41;5031550;28;20874;-73
2022/06/08 08:58:34;;;;;;;122.50;13.30;;;;;;;21.87;51.35;99737.38;5017950;28;20421;-73
2022/06/08 09:01:09;;;;;;;3.00;1.00;;;;;;;21.82;52.04;99734.84;5014454;28;20391;-73
2022/06/08 09:03:49;;;;;;;10.30;7.47;;;;;;;21.90;51.67;99736.78;5032044;28;20399;-74
2022/06/08 09:06:18;;;;;;;3.13;1.52;;;;;;;21.94;52.27;99738.50;5016599;28;20407;-73
2022/06/08 09:08:46;;;;;;;3.67;1.10;;;;;;;22.14;51.90;99721.13;5032185;28;20820;-73
2022/06/08 09:11:18;;;;;;;3.72;0.85;;;;;;;22.34;51.58;99726.94;5013971;28;20387;-73
2022/06/08 09:13:45;;;;;;;5.50;1.33;;;;;;;22.41;50.87;99730.75;5031775;28;20418;-73
2022/06/08 09:16:26;;;;;;;2.70;0.70;;;;;;;22.43;49.08;99725.69;5032047;28;20394;-73
2022/06/08 09:18:51;;;;;;;3.50;0.63;;;;;;;22.41;48.53;99719.72;5031682;28;20387;-73
2022/06/08 09:21:36;;;;;;;2.80;0.87;;;;;;;22.55;49.10;99713.88;5031832;28;20720;-73
2022/06/08 09:24:36;;;;;;;3.95;1.02;;;;;;;22.69;50.07;99719.91;5016846;28;20422;-73
2022/06/08 09:27:11;;;;;;;1.20;0.70;;;;;;;22.81;50.98;99705.31;5018089;28;20882;-73
2022/06/08 09:29:51;;;;;;;6.30;1.27;;;;;;;22.97;51.10;99706.25;5031945;28;20403;-73
2022/06/08 09:32:38;;;;;;;3.53;1.10;;;;;;;23.05;49.79;99697.81;5031602;28;20472;-73
2022/06/08 09:35:33;;;;;;;4.25;1.08;;;;;;;23.09;49.44;99701.50;5013918;28;20395;-73
2022/06/08 09:38:12;;;;;;;4.20;1.20;;;;;;;23.13;49.36;99702.44;5018661;28;20495;-73
2022/06/08 09:40:49;;;;;;;4.60;1.83;;;;;;;23.31;49.07;99700.25;5013717;28;20395;-73
2022/06/08 09:43:23;;;;;;;3.15;1.00;;;;;;;23.45;48.08;99705.41;5031360;28;20403;-72
2022/06/08 09:45:51;;;;;;;3.37;0.93;;;;;;;23.62;47.85;99702.38;5031582;28;20391;-73
2022/06/08 09:51:45;;;;;;;3.90;1.00;;;;;;;24.21;45.47;99695.03;5031506;28;20418;-73
2022/06/08 09:54:34;;;;;;;4.40;1.45;;;;;;;24.57;45.24;99695.97;5015427;28;20403;-73
2022/06/08 09:57:30;;;;;;;1.67;0.50;;;;;;;25.19;43.62;99690.44;5031414;28;20450;-73
2022/06/08 10:00:18;;;;;;;1.95;0.70;;;;;;;26.77;40.00;99680.22;5031385;28;20387;-73
2022/06/08 10:03:19;;;;;;;2.55;0.93;;;;;;;27.48;37.59;99665.47;5031385;28;20902;-73
2022/06/08 10:06:21;;;;;;;3.90;0.75;;;;;;;27.03;39.18;99669.16;5019925;28;20446;-74
2022/06/08 10:09:39;;;;;;;4.63;0.85;;;;;;;26.68;40.38;99671.31;5035186;28;20395;-71
2022/06/08 10:12:12;;;;;;;4.85;0.95;;;;;;;28.34;36.83;99668.91;4999951;28;20473;-73
2022/06/08 10:14:49;;;;;;;1.20;0.90;;;;;;;29.54;35.62;99668.31;5035301;28;20395;-73
2022/06/08 10:17:26;;;;;;;1.60;0.67;;;;;;;29.82;34.99;99662.84;5035130;28;20391;-73
2022/06/08 10:20:11;;;;;;;2.65;0.50;;;;;;;28.90;34.80;99664.25;5035024;28;20452;-74
2022/06/08 10:22:43;;;;;;;3.78;0.88;;;;;;;28.60;35.72;99659.59;5035212;28;20403;-72
2022/06/08 10:25:14;;;;;;;1.42;0.50;;;;;;;29.82;33.57;99655.28;5035219;28;20398;-72
2022/06/08 10:27:47;;;;;;;4.28;1.10;;;;;;;30.49;30.07;99648.31;5034965;28;20878;-73
2022/06/08 10:30:19;;;;;;;2.78;0.80;;;;;;;30.99;30.27;99649.91;5035044;28;20398;-73
2022/06/08 10:32:51;;;;;;;2.35;0.57;;;;;;;31.45;29.70;99646.25;5019277;28;20763;-73
2022/06/08 10:35:42;;;;;;;2.40;0.70;;;;;;;29.62;31.72;99650.38;5034945;28;20395;-73
2022/06/08 10:38:19;;;;;;;3.58;0.75;;;;;;;30.17;32.01;99640.63;5034879;28;20457;-73
2022/06/08 10:43:59;;;;;;;4.15;0.50;;;;;;;32.99;26.16;99648.59;5034754;28;20398;-70
2022/06/08 10:46:38;;;;;;;1.55;0.70;;;;;;;33.28;26.30;99641.50;5016845;28;20403;-71
2022/06/08 10:49:03;;;;;;;2.83;0.52;;;;;;;31.38;28.50;99641.47;5016803;28;20426;-70
2022/06/08 10:51:35;;;;;;;2.97;0.80;;;;;;;31.13;28.08;99638.72;5033401;28;20387;-71
2022/06/08 10:56:49;;;;;;;1.00;0.40;;;;;;;32.56;25.74;99634.09;5034890;28;20872;-71
2022/06/08 10:59:21;;;;;;;0.80;0.50;;;;;;;32.49;24.62;99623.72;5034420;28;20930;-71
2022/06/08 11:01:49;;;;;;;2.72;0.70;;;;;;;32.40;25.79;99620.59;5034532;28;20395;-72
2022/06/08 11:04:26;;;;;;;2.03;0.80;;;;;;;31.81;26.55;99622.53;5034249;28;20739;-71
2022/06/08 11:07:10;;;;;;;5.25;0.80;;;;;;;30.20;28.02;99608.28;5034456;28;20758;-71
2022/06/08 11:09:36;;;;;;;4.30;0.90;;;;;;;29.19;30.27;99615.84;5034029;28;20403;-71
2022/06/08 11:12:12;;;;;;;1.20;0.50;;;;;;;29.87;29.14;99609.41;5034320;28;20402;-71
2022/06/08 11:14:43;;;;;;;1.48;0.60;;;;;;;31.43;27.33;99617.84;5016457;28;20457;-71
2022/06/08 11:17:33;;;;;;;1.00;0.50;;;;;;;32.21;26.93;99602.28;5034226;28;20395;-71
2022/06/08 11:20:22;;;;;;;2.30;0.60;;;;;;;32.61;26.64;99603.59;5018347;28;20395;-71
2022/06/08 11:22:55;;;;;;;2.05;0.68;;;;;;;31.77;27.35;99602.13;5034069;28;20391;-72
2022/06/08 11:25:32;;;;;;;2.60;1.02;;;;;;;30.09;28.78;99597.09;5033971;28;20751;-72
2022/06/08 11:28:39;;;;;;;3.30;0.60;;;;;;;29.55;29.99;99589.72;5033942;28;20579;-72
2022/06/08 11:31:28;;;;;;;2.47;0.80;;;;;;;30.44;28.04;99585.19;5034041;28;20434;-72
2022/06/08 11:34:18;;;;;;;2.78;1.80;;;;;;;30.55;28.55;99582.41;5019366;28;20454;-72
2022/06/08 11:37:18;;;;;;;1.92;0.57;;;;;;;29.64;30.02;99586.59;5033822;28;20976;-72
2022/06/08 11:39:53;;;;;;;3.65;0.60;;;;;;;28.72;32.03;99578.47;5017523;28;20403;-72
2022/06/08 11:42:30;;;;;;;2.97;0.60;;;;;;;28.13;32.48;99593.47;5033841;28;20762;-72
2022/06/08 11:44:57;;;;;;;2.40;0.65;;;;;;;27.83;32.67;99582.38;5015768;28;20399;-72
2022/06/08 11:47:48;;;;;;;3.20;0.80;;;;;;;27.89;32.56;99577.28;5033596;28;20387;-72
2022/06/08 11:50:18;;;;;;;1.52;0.82;;;;;;;27.59;33.23;99569.00;5033510;28;20438;-71
2022/06/08 11:52:46;;;;;;;2.28;0.60;;;;;;;27.46;33.83;99570.44;5032195;28;20419;-72
2022/06/08 11:55:23;;;;;;;2.95;0.70;;;;;;;27.28;33.99;99561.81;5033828;28;20395;-72
2022/06/08 11:58:16;;;;;;;1.50;0.70;;;;;;;27.12;33.96;99558.44;5032184;28;20380;-72
2022/06/08 12:00:53;;;;;;;1.95;0.65;;;;;;;27.14;33.69;99563.59;5033401;28;20383;-71
2022/06/08 12:03:23;;;;;;;2.22;0.60;;;;;;;27.09;34.23;99567.53;5018379;28;20395;-72
2022/06/08 12:05:53;;;;;;;2.28;0.70;;;;;;;26.85;34.03;99561.59;5033067;28;20407;-71